Red Mills, New York
Current Conditions -  °F | °C
As of 6:53 PM on Thursday 27 Nov 2014 (Local Time) from KMSS Reporting Station
Overcast Overcast  
Wind Chill: 28°   Ceiling: 3700
Heat Index: 28°   Visibility: 10mi
Dew Point: 19°   Wind: 3mph
Humidity: 69%   Direction: 320°NW
Pressure: 30.07"   Gusts: NA
Location:  44.7176°N, 75.3859°W
Report Text: KMSS 272353Z AUTO 32003KT 10SM OVC037 M02/M07 A3007 RMK AO2 SLP188 T10221072 11006 21022 53004
Loading
Personal Weather Stations






























Interactive Weather Map New forecast layout! Learn more

10-Day Weather Forecast

Advertisements
Track Severe Weather on mobile